createdAt,value
2023-05-12T00:03:14.715Z,13.90
2023-05-12T00:06:56.661Z,13.90
2023-05-12T00:10:38.662Z,13.80
2023-05-12T00:14:20.664Z,13.70
2023-05-12T00:18:02.499Z,13.70
2023-05-12T00:21:44.667Z,13.60
2023-05-12T00:25:26.630Z,13.60
2023-05-12T00:29:08.433Z,13.50
2023-05-12T00:32:50.310Z,13.50
2023-05-12T00:36:32.272Z,13.40
2023-05-12T00:40:14.195Z,13.30
2023-05-12T00:43:56.033Z,13.30
2023-05-12T00:47:38.039Z,13.20
2023-05-12T00:51:19.949Z,13.20
2023-05-12T00:55:02.368Z,13.10
2023-05-12T00:58:44.459Z,13.10
2023-05-12T01:02:26.418Z,13.00
2023-05-12T01:06:24.015Z,13.00
2023-05-12T01:10:23.367Z,12.90
2023-05-12T01:14:05.408Z,12.90
2023-05-12T01:18:01.627Z,12.80
2023-05-12T01:21:43.543Z,12.80
2023-05-12T01:25:28.693Z,12.70
2023-05-12T01:29:11.318Z,12.70
2023-05-12T01:32:53.447Z,12.60
2023-05-12T01:36:35.310Z,12.60
2023-05-12T01:40:18.158Z,12.50
2023-05-12T01:44:00.061Z,12.50
2023-05-12T01:47:41.872Z,12.50
2023-05-12T01:51:23.744Z,12.40
2023-05-12T01:55:06.011Z,12.30
2023-05-12T01:58:47.882Z,12.30
2023-05-12T02:02:31.570Z,12.30
2023-05-12T02:06:13.571Z,12.20
2023-05-12T02:09:55.399Z,12.20
2023-05-12T02:13:37.217Z,12.20
2023-05-12T02:17:19.037Z,12.10
2023-05-12T02:21:00.885Z,12.00
2023-05-12T02:24:42.668Z,12.00
2023-05-12T02:28:24.486Z,12.00
2023-05-12T02:32:06.616Z,11.90
2023-05-12T02:35:48.592Z,11.90
2023-05-12T02:39:30.498Z,11.80
2023-05-12T02:43:12.292Z,11.80
2023-05-12T02:46:54.086Z,11.80
2023-05-12T02:50:35.883Z,11.70
2023-05-12T02:54:17.686Z,11.70
2023-05-12T02:57:59.531Z,11.60
2023-05-12T03:01:41.345Z,11.50
2023-05-12T03:05:23.197Z,11.50
2023-05-12T03:09:05.234Z,11.50
2023-05-12T03:12:47.061Z,11.40
2023-05-12T03:16:28.866Z,11.40
2023-05-12T03:20:11.138Z,11.40
2023-05-12T03:23:53.080Z,11.30
2023-05-12T03:27:34.906Z,11.30
2023-05-12T03:31:17.182Z,11.30
2023-05-12T03:34:59.015Z,11.20
2023-05-12T03:38:40.905Z,11.20
2023-05-12T03:42:24.134Z,11.20
2023-05-12T03:46:06.098Z,11.10
2023-05-12T03:49:47.920Z,11.20
2023-05-12T03:53:30.039Z,11.10
2023-05-12T03:57:12.864Z,11.00
2023-05-12T04:00:57.009Z,11.00
2023-05-12T04:04:39.020Z,11.00
2023-05-12T04:08:20.986Z,11.00
2023-05-12T04:12:03.078Z,10.90
2023-05-12T04:15:44.930Z,10.90
2023-05-12T04:19:26.732Z,10.90
2023-05-12T04:23:08.572Z,10.90
2023-05-12T04:26:50.412Z,10.90
2023-05-12T04:30:32.528Z,11.00
2023-05-12T04:34:14.426Z,11.10
2023-05-12T04:37:56.250Z,11.20
2023-05-12T04:41:38.149Z,11.30
2023-05-12T04:45:20.319Z,11.30
2023-05-12T04:49:02.304Z,11.40
2023-05-12T04:52:44.219Z,11.50
2023-05-12T04:56:26.156Z,11.50
2023-05-12T05:00:09.226Z,11.60
2023-05-12T05:03:51.420Z,11.60
2023-05-12T05:07:33.405Z,11.60
2023-05-12T05:11:15.213Z,11.70
2023-05-12T05:14:57.097Z,11.70
2023-05-12T05:18:41.969Z,11.70
2023-05-12T05:22:23.837Z,11.70
2023-05-12T05:26:05.665Z,11.80
2023-05-12T05:29:47.469Z,11.80
2023-05-12T05:33:29.347Z,11.80
2023-05-12T05:37:11.167Z,11.80
2023-05-12T05:40:54.446Z,11.80
2023-05-12T05:44:36.647Z,11.90
2023-05-12T05:48:18.703Z,11.90
2023-05-12T05:52:00.601Z,12.00
2023-05-12T05:55:42.386Z,12.00
2023-05-12T05:59:24.479Z,12.00
2023-05-12T06:03:06.361Z,12.00
2023-05-12T06:06:48.309Z,12.10
2023-05-12T06:10:30.107Z,12.10
2023-05-12T06:14:11.980Z,12.20
2023-05-12T06:17:53.788Z,12.20
2023-05-12T06:21:35.753Z,12.20
2023-05-12T06:25:17.731Z,12.30
2023-05-12T06:28:59.616Z,12.30
2023-05-12T06:32:41.687Z,12.40
2023-05-12T06:36:23.959Z,12.50
2023-05-12T06:40:06.563Z,12.60
2023-05-12T06:43:48.371Z,12.60
2023-05-12T06:47:30.222Z,12.80
2023-05-12T06:51:13.166Z,12.80
2023-05-12T06:54:55.017Z,13.00
2023-05-12T06:58:37.096Z,13.00
2023-05-12T07:02:19.046Z,13.20
2023-05-12T07:06:01.056Z,13.30
2023-05-12T07:09:43.189Z,13.30
2023-05-12T07:13:25.038Z,13.50
2023-05-12T07:17:06.967Z,13.50
2023-05-12T07:20:49.162Z,13.60
2023-05-12T07:24:31.031Z,13.60
2023-05-12T07:28:12.965Z,13.70
2023-05-12T07:31:54.856Z,13.60
2023-05-12T07:35:36.739Z,13.70
2023-05-12T07:39:23.439Z,13.60
2023-05-12T07:43:05.535Z,13.70
2023-05-12T07:46:47.389Z,13.70
2023-05-12T07:50:29.333Z,13.80
2023-05-12T07:54:11.121Z,13.90
2023-05-12T07:57:52.964Z,13.90
2023-05-12T08:01:35.307Z,14.10
2023-05-12T08:05:17.246Z,14.20
2023-05-12T08:08:59.364Z,14.30
2023-05-12T08:12:42.412Z,14.60
2023-05-12T08:16:24.276Z,14.80
2023-05-12T08:20:06.938Z,15.00
2023-05-12T08:23:48.901Z,15.20
2023-05-12T08:27:30.799Z,15.30
2023-05-12T08:31:12.725Z,15.40
2023-05-12T08:34:54.927Z,15.90
2023-05-12T08:38:36.783Z,16.70
2023-05-12T08:42:39.505Z,17.30
2023-05-12T08:46:21.819Z,17.60
2023-05-12T08:50:05.523Z,17.60
2023-05-12T08:53:49.161Z,17.50
2023-05-12T08:57:31.875Z,17.30
2023-05-12T09:01:15.007Z,17.10
2023-05-12T09:04:57.213Z,17.00
2023-05-12T09:08:40.954Z,17.00
2023-05-12T09:12:24.965Z,17.10
2023-05-12T09:16:11.508Z,17.30
2023-05-12T09:19:53.420Z,17.50
2023-05-12T09:23:35.257Z,17.70
2023-05-12T09:27:27.968Z,17.60
2023-05-12T09:31:22.762Z,17.50
2023-05-12T09:35:11.564Z,17.40
2023-05-12T09:39:01.800Z,17.60
2023-05-12T09:42:43.862Z,17.80
2023-05-12T09:46:26.201Z,18.30
2023-05-12T09:50:10.277Z,19.10
2023-05-12T09:53:52.598Z,20.00
2023-05-12T09:57:39.774Z,20.90
2023-05-12T10:01:24.496Z,21.70
2023-05-12T10:05:08.522Z,22.60
2023-05-12T10:08:58.885Z,23.30
2023-05-12T10:12:41.667Z,23.90
2023-05-12T10:16:23.898Z,24.10
2023-05-12T10:20:07.682Z,24.50
2023-05-12T10:23:51.107Z,25.00
2023-05-12T10:27:33.976Z,25.60
2023-05-12T10:31:16.476Z,26.30
2023-05-12T10:35:08.824Z,26.70
2023-05-12T10:38:51.149Z,27.10
2023-05-12T10:42:41.547Z,27.20
2023-05-12T10:46:24.448Z,27.10
2023-05-12T10:50:06.975Z,26.70
2023-05-12T10:53:54.810Z,26.40
2023-05-12T10:57:51.894Z,26.00
2023-05-12T11:01:34.794Z,25.40
2023-05-12T11:05:18.724Z,24.80
2023-05-12T11:09:01.356Z,24.20
2023-05-12T11:12:44.976Z,23.60
2023-05-12T11:16:27.022Z,23.20
2023-05-12T11:20:12.070Z,23.30
2023-05-12T11:23:54.865Z,23.60
2023-05-12T11:27:42.360Z,23.70
2023-05-12T11:31:24.766Z,24.30
2023-05-12T11:35:15.366Z,25.30
2023-05-12T11:38:57.240Z,26.30
2023-05-12T11:42:41.358Z,26.90
2023-05-12T11:46:30.377Z,26.90
2023-05-12T11:50:12.288Z,26.70
2023-05-12T11:53:54.444Z,26.40
2023-05-12T11:57:36.512Z,26.00
2023-05-12T12:01:18.337Z,25.80
2023-05-12T12:05:00.906Z,26.10
2023-05-12T12:09:02.707Z,26.10
2023-05-12T12:12:46.398Z,26.50
2023-05-12T12:16:32.829Z,27.20
2023-05-12T12:20:18.843Z,27.10
2023-05-12T12:24:03.794Z,27.30
2023-05-12T12:27:45.909Z,27.80
2023-05-12T12:31:28.385Z,28.20
2023-05-12T12:35:11.604Z,27.90
2023-05-12T12:38:53.387Z,27.60
2023-05-12T12:42:37.233Z,27.80
2023-05-12T12:46:19.876Z,28.40
2023-05-12T12:50:01.837Z,28.20
2023-05-12T12:53:45.674Z,27.70
2023-05-12T12:57:27.688Z,27.30
2023-05-12T13:01:10.182Z,26.90
2023-05-12T13:04:52.151Z,26.60
2023-05-12T13:08:33.976Z,26.00
2023-05-12T13:12:15.907Z,25.70
2023-05-12T13:15:57.829Z,25.40
2023-05-12T13:19:40.088Z,25.10
2023-05-12T13:23:21.925Z,24.70
2023-05-12T13:27:08.228Z,24.60
2023-05-12T13:30:52.577Z,24.50
2023-05-12T13:34:34.746Z,24.80
2023-05-12T13:38:17.643Z,25.60
2023-05-12T13:42:00.188Z,26.50
2023-05-12T13:45:42.722Z,26.90
2023-05-12T13:49:24.713Z,26.90
2023-05-12T13:53:06.722Z,26.90
2023-05-12T13:56:48.721Z,26.70
2023-05-12T14:00:30.698Z,26.40
2023-05-12T14:04:12.880Z,25.90
2023-05-12T14:07:54.753Z,25.40
2023-05-12T14:11:37.067Z,25.10
2023-05-12T14:15:32.377Z,24.70
2023-05-12T14:19:18.395Z,24.30
2023-05-12T14:23:00.619Z,23.90
2023-05-12T14:26:42.526Z,23.50
2023-05-12T14:30:24.552Z,23.20
2023-05-12T14:34:06.506Z,23.00
2023-05-12T14:37:48.405Z,23.00
2023-05-12T14:41:30.245Z,22.80
2023-05-12T14:45:12.395Z,22.70
2023-05-12T14:48:54.568Z,22.60
2023-05-12T14:52:38.560Z,22.40
2023-05-12T14:56:20.667Z,22.30
2023-05-12T15:00:02.526Z,22.30
2023-05-12T15:03:44.656Z,22.30
2023-05-12T15:07:26.679Z,22.20
2023-05-12T15:11:08.579Z,22.00
2023-05-12T15:14:51.125Z,21.90
2023-05-12T15:18:33.014Z,21.60
2023-05-12T15:22:14.959Z,21.50
2023-05-12T15:25:58.112Z,21.30
2023-05-12T15:29:42.180Z,21.20
2023-05-12T15:33:25.010Z,21.10
2023-05-12T15:37:07.176Z,21.10
2023-05-12T15:40:49.313Z,21.00
2023-05-12T15:44:31.842Z,20.90
2023-05-12T15:48:13.679Z,20.80
2023-05-12T15:51:55.601Z,20.70
2023-05-12T15:55:37.540Z,20.60
2023-05-12T15:59:19.955Z,20.60
2023-05-12T16:03:02.106Z,20.70
2023-05-12T16:06:44.115Z,20.80
2023-05-12T16:10:26.095Z,20.90
2023-05-12T16:14:07.972Z,20.80
2023-05-12T16:17:49.805Z,20.70
2023-05-12T16:21:32.085Z,20.70
2023-05-12T16:25:14.457Z,20.60
2023-05-12T16:28:56.460Z,20.50
2023-05-12T16:32:38.368Z,20.40
2023-05-12T16:36:20.700Z,20.30
2023-05-12T16:40:02.568Z,20.20
2023-05-12T16:43:44.469Z,20.10
2023-05-12T16:47:26.598Z,20.00
2023-05-12T16:51:10.316Z,19.90
2023-05-12T16:54:53.205Z,19.80
2023-05-12T16:58:35.704Z,19.70
2023-05-12T17:02:17.876Z,19.70
2023-05-12T17:05:59.946Z,19.60
2023-05-12T17:09:41.893Z,19.50
2023-05-12T17:13:23.919Z,19.50
2023-05-12T17:17:06.091Z,19.40
2023-05-12T17:20:48.190Z,19.40
2023-05-12T17:24:30.502Z,19.30
2023-05-12T17:28:12.617Z,19.20
2023-05-12T17:31:55.023Z,19.10
2023-05-12T17:35:36.981Z,19.00
2023-05-12T17:39:19.149Z,19.00
2023-05-12T17:43:01.213Z,18.80
2023-05-12T17:46:43.512Z,18.80
2023-05-12T17:50:25.469Z,18.70
2023-05-12T17:54:08.052Z,18.60
2023-05-12T17:57:50.361Z,18.50
2023-05-12T18:01:32.549Z,18.40
2023-05-12T18:05:14.501Z,18.40
2023-05-12T18:08:56.710Z,18.30
2023-05-12T18:12:39.004Z,18.20
2023-05-12T18:16:28.412Z,18.10
2023-05-12T18:20:11.626Z,18.10
2023-05-12T18:23:53.523Z,18.00
2023-05-12T18:27:35.760Z,17.90
2023-05-12T18:31:20.038Z,17.90
2023-05-12T18:35:02.227Z,17.90
2023-05-12T18:38:44.301Z,17.80
2023-05-12T18:42:26.458Z,17.80
2023-05-12T18:46:08.388Z,17.70
2023-05-12T18:49:50.392Z,17.70
2023-05-12T18:53:32.979Z,17.70
2023-05-12T18:57:15.424Z,17.60
2023-05-12T19:00:58.087Z,17.50
2023-05-12T19:04:40.675Z,17.40
2023-05-12T19:08:22.916Z,17.30
2023-05-12T19:12:06.331Z,17.20
2023-05-12T19:15:48.952Z,17.10
2023-05-12T19:19:31.336Z,17.10
2023-05-12T19:23:13.641Z,17.00
2023-05-12T19:26:55.895Z,17.00
2023-05-12T19:30:37.960Z,16.90
2023-05-12T19:34:20.164Z,16.90
2023-05-12T19:38:02.024Z,16.80
2023-05-12T19:41:43.948Z,16.70
2023-05-12T19:45:25.916Z,16.70
2023-05-12T19:49:07.832Z,16.60
2023-05-12T19:52:51.253Z,16.50
2023-05-12T19:56:33.829Z,16.50
2023-05-12T20:00:16.022Z,16.40
2023-05-12T20:03:57.950Z,16.30
2023-05-12T20:07:40.267Z,16.20
2023-05-12T20:11:22.349Z,16.10
2023-05-12T20:15:04.655Z,16.10
2023-05-12T20:18:46.591Z,16.10
2023-05-12T20:22:28.512Z,16.10
2023-05-12T20:26:10.662Z,16.00
2023-05-12T20:29:52.894Z,15.90
2023-05-12T20:33:34.807Z,15.90
2023-05-12T20:37:17.378Z,15.90
2023-05-12T20:41:07.301Z,15.90
2023-05-12T20:44:49.530Z,15.80
2023-05-12T20:48:32.633Z,15.70
2023-05-12T20:52:14.660Z,15.60
2023-05-12T20:55:57.273Z,15.50
2023-05-12T20:59:42.477Z,15.50
2023-05-12T21:03:24.629Z,15.50
2023-05-12T21:07:06.840Z,15.50
2023-05-12T21:10:49.023Z,15.40
2023-05-12T21:14:30.899Z,15.40
2023-05-12T21:18:13.382Z,15.30
2023-05-12T21:21:55.347Z,15.20
2023-05-12T21:25:37.432Z,15.10
2023-05-12T21:29:19.366Z,15.10
2023-05-12T21:33:01.250Z,15.00
2023-05-12T21:36:43.168Z,15.00
2023-05-12T21:40:25.030Z,15.00
2023-05-12T21:44:08.185Z,14.90
2023-05-12T21:47:51.475Z,14.90
2023-05-12T21:51:33.489Z,14.90
2023-05-12T21:55:16.003Z,14.90
2023-05-12T21:58:57.807Z,14.90
2023-05-12T22:02:39.690Z,14.90
2023-05-12T22:06:21.528Z,14.90
2023-05-12T22:10:04.712Z,14.90
2023-05-12T22:13:46.542Z,14.80
2023-05-12T22:17:28.374Z,14.90
2023-05-12T22:21:10.855Z,14.90
2023-05-12T22:24:52.693Z,14.80
2023-05-12T22:28:34.594Z,14.80
2023-05-12T22:32:16.438Z,14.80
2023-05-12T22:36:00.030Z,14.80
2023-05-12T22:39:41.900Z,14.70
2023-05-12T22:43:23.779Z,14.70
2023-05-12T22:47:06.733Z,14.60
2023-05-12T22:50:48.625Z,14.60
2023-05-12T22:54:30.476Z,14.60
2023-05-12T22:58:12.356Z,14.60
2023-05-12T23:01:54.129Z,14.50
2023-05-12T23:05:36.011Z,14.50
2023-05-12T23:09:17.804Z,14.50
2023-05-12T23:12:59.780Z,14.40
2023-05-12T23:16:41.650Z,14.40
2023-05-12T23:20:23.697Z,14.40
2023-05-12T23:24:06.327Z,14.40
2023-05-12T23:27:48.133Z,14.30
2023-05-12T23:31:30.427Z,14.30
2023-05-12T23:35:12.298Z,14.30
2023-05-12T23:38:54.647Z,14.20
2023-05-12T23:42:36.491Z,14.20
2023-05-12T23:46:18.388Z,14.20
2023-05-12T23:50:00.301Z,14.20
2023-05-12T23:53:42.154Z,14.10
2023-05-12T23:57:24.182Z,14.10
